• Join FlightAware (Why Join?)
  • Login
  • US Flag 
01:48AM EST


 

Airport Tracker/Info


-or-


 

Live Flight TrackerFlight Track Log ✈ N21EK ✈ 20-Apr-2013 ✈ KSRQ - KBED

Flight Track Log - Related Links

Times and Time Zones

All times are in EDT time to prevent confusion due to time zone crossing. See the N21EK flight status page for this flight to view local times or setup timezone preferences in your user account.

Time Position Orientation Groundspeed Altitude Reporting Facility
EDT Latitude Longitude Course Direction KTS MPH feet Rate Location/Type
08:43AM 27.4000 -82.5667 270° West 141 162 600  Level Tampa TRACON
08:45AM 27.4000 -82.6167 270° West 183 211 3,200 2,520 Climbing Tampa TRACON
08:45AM 27.4000 -82.6667 270° West 171 197 5,700 2,040 Climbing Tampa TRACON
08:47AM 27.4414 -82.7458 301° West 160 184 8,700 1,740 Climbing Miami Center
08:48AM 27.4911 -82.7578 348° North 173 199 10,500 1,740 Climbing Miami Center
08:49AM 27.5475 -82.7561 North 173 199 12,200 1,500 Climbing Miami Center
08:50AM 27.6039 -82.7542 North 183 211 13,500 1,260 Climbing Miami Center
08:52AM 27.7222 -82.7589 358° North 218 251 16,200 1,260 Climbing Jacksonville Center
08:53AM 27.7847 -82.7683 352° North 223 257 17,500 1,080 Climbing Jacksonville Center
08:54AM 27.8472 -82.7753 354° North 223 257 18,400 900 Climbing Jacksonville Center
08:55AM 27.9161 -82.7728 North 228 262 19,400 1,020 Climbing Jacksonville Center
08:56AM 27.9850 -82.7681 North 238 274 20,500 1,080 Climbing Jacksonville Center
08:57AM 28.0517 -82.7678 360° North 238 274 21,600 1,080 Climbing Jacksonville Center
08:58AM 28.1206 -82.7656 North 238 274 22,700 1,140 Climbing Jacksonville Center
08:59AM 28.1917 -82.7606 North 238 274 23,900 1,140 Climbing Jacksonville Center
09:00AM 28.2606 -82.7631 358° North 238 274 25,000 960 Climbing Jacksonville Center
09:01AM 28.3356 -82.7581 North 255 293 25,900 840 Climbing Jacksonville Center
09:02AM 28.4128 -82.7556 North 260 299 26,700 780 Climbing Jacksonville Center
09:03AM 28.4900 -82.7556 360° North 272 313 27,500 600 Climbing Jacksonville Center
09:04AM 28.5714 -82.7508 North 278 320 28,000 240 Climbing Jacksonville Center
09:05AM 28.6611 -82.7483 North 298 343 28,000  Level Jacksonville Center
09:06AM 28.7550 -82.7433 North 313 360 28,000  Level Jacksonville Center
09:07AM 28.8511 -82.7386 North 331 381 28,000  Level Jacksonville Center
09:08AM 28.9492 -82.7336 North 342 394 28,000 240 Level Jacksonville Center
09:09AM 29.0472 -82.7311 North 348 400 28,500 1,020 Climbing Jacksonville Center
09:10AM 29.1369 -82.7286 North 340 391 30,100 1,260 Climbing Jacksonville Center
09:11AM 29.2183 -82.7261 North 311 358 31,100 900 Climbing Jacksonville Center
09:12AM 29.3019 -82.7236 North 299 344 31,900 660 Climbing Jacksonville Center
09:13AM 29.3853 -82.7208 North 294 338 32,500 600 Climbing Jacksonville Center
09:14AM 29.4708 -82.7183 North 294 338 33,200 900 Climbing Jacksonville Center
09:15AM 29.5544 -82.7208 359° North 294 338 34,300 780 Climbing Jacksonville Center
09:16AM 29.6358 -82.7158 North 288 331 34,800 600 Climbing Jacksonville Center
09:17AM 29.7194 -82.7156 360° North 288 331 35,600 780 Climbing Jacksonville Center
09:18AM 29.7986 -82.7131 North 288 331 36,400 660 Climbing Jacksonville Center
09:19AM 29.8803 -82.7106 North 288 331 37,000 600 Climbing Jacksonville Center
09:20AM 29.9658 -82.7056 North 288 331 37,600 540 Climbing Jacksonville Center
09:21AM 30.0492 -82.6981 North 293 337 38,100 660 Climbing Jacksonville Center
09:22AM 30.1328 -82.6956 North 293 337 39,000 780 Climbing Jacksonville Center
09:23AM 30.2161 -82.6617 19° North 293 337 39,700 660 Climbing Jacksonville Center
09:24AM 30.2892 -82.5894 40° Northeast 308 354 40,400 480 Climbing Jacksonville Center
09:25AM 30.3661 -82.5194 38° Northeast 332 382 40,700 300 Climbing Jacksonville Center
09:26AM 30.4411 -82.4492 39° Northeast 343 395 41,000 120 Climbing Jacksonville Center
09:27AM 30.5161 -82.3742 41° Northeast 348 400 41,000  Level Jacksonville Center
09:28AM 30.5972 -82.2989 39° Northeast 353 406 41,000  Level Jacksonville Center
09:29AM 30.6761 -82.2236 39° Northeast 353 406 41,000  Level Jacksonville Center
09:30AM 30.7572 -82.1456 40° Northeast 364 419 41,000  Level Jacksonville Center
09:31AM 30.8442 -82.0628 39° Northeast 364 419 41,000  Level Jacksonville Center
09:32AM 30.9272 -81.9819 40° Northeast 369 425 41,000  Level Jacksonville Center
09:33AM 31.0103 -81.9036 39° Northeast 374 430 41,000  Level Jacksonville Center
09:34AM 31.0908 -81.8250 40° Northeast 374 430 41,000  Level Jacksonville Center
09:35AM 31.1803 -81.7586 32° Northeast 374 430 41,000  Level Jacksonville Center
09:36AM 31.2672 -81.6944 32° Northeast 369 425 41,000  Level Jacksonville Center
09:37AM 31.3522 -81.6250 35° Northeast 369 425 41,000  Level Jacksonville Center
09:38AM 31.4392 -81.5558 34° Northeast 374 430 41,000  Level Jacksonville Center
09:39AM 31.5261 -81.4861 34° Northeast 374 430 41,000  Level Jacksonville Center
09:40AM 31.6069 -81.4242 33° Northeast 374 430 41,000  Level Jacksonville Center
09:41AM 31.7000 -81.3517 34° Northeast 367 422 41,000  Level Jacksonville Center
09:42AM 31.7786 -81.2869 35° Northeast 374 430 41,000  Level Jacksonville Center
09:43AM 31.8756 -81.2094 34° Northeast 374 430 41,000  Level Jacksonville Center
09:44AM 31.9583 -81.1467 33° Northeast 380 437 41,000  Level Jacksonville Center
09:45AM 32.0469 -81.0764 34° Northeast 385 443 41,000  Level Jacksonville Center
09:46AM 32.1503 -80.9933 34° Northeast 400 460 41,000  Level Jacksonville Center
09:47AM 32.2328 -80.9303 33° Northeast 393 452 41,000  Level Jacksonville Center
09:48AM 32.3339 -80.8494 34° Northeast 393 452 41,000  Level Jacksonville Center
09:49AM 32.4264 -80.7758 34° Northeast 393 452 41,000  Level Jacksonville Center
09:50AM 32.5067 -80.7100 35° Northeast 393 452 41,000  Level Jacksonville Center
09:51AM 32.5994 -80.6364 34° Northeast 398 458 41,000  Level Jacksonville Center
09:52AM 32.6919 -80.5625 34° Northeast 398 458 41,000  Level Jacksonville Center
09:53AM 32.7844 -80.4858 35° Northeast 398 458 41,000  Level Jacksonville Center
09:54AM 32.8769 -80.4117 34° Northeast 392 451 41,000  Level Jacksonville Center
09:55AM 32.9797 -80.3272 35° Northeast 403 464 41,000  Level Jacksonville Center
09:56AM 33.0783 -80.2475 34° Northeast 408 470 41,000  Level Jacksonville Center
09:57AM 33.1725 -80.1703 34° Northeast 414 476 41,000  Level Jacksonville Center
09:58AM 33.2692 -80.0928 34° Northeast 414 476 41,000  Level Jacksonville Center
09:59AM 33.3614 -80.0178 34° Northeast 408 470 41,000  Level Jacksonville Center
10:00AM 33.4533 -79.9425 34° Northeast 403 464 41,000  Level Jacksonville Center
10:01AM 33.5456 -79.8647 35° Northeast 403 464 41,000  Level Jacksonville Center
10:02AM 33.6375 -79.7867 35° Northeast 403 464 41,000  Level Jacksonville Center
10:03AM 33.7317 -79.7111 34° Northeast 403 464 41,000  Level Jacksonville Center
10:05AM 33.8797 -79.5889 34° Northeast 374 430 41,000  Level Washington Center
10:06AM 33.9700 -79.5106 36° Northeast 380 437 41,000  Level Washington Center
10:07AM 34.0642 -79.4322 35° Northeast 405 466 41,000  Level Washington Center
10:08AM 34.1586 -79.3539 34° Northeast 413 475 41,000  Level Washington Center
10:09AM 34.2636 -79.2631 36° Northeast 412 474 41,000  Level Washington Center
10:10AM 34.3636 -79.2022 27° Northeast 412 474 41,000  Level Washington Center
10:11AM 34.4675 -79.1464 24° Northeast 401 461 41,000  Level Washington Center
10:12AM 34.5692 -79.0903 24° Northeast 401 461 41,000  Level Washington Center
10:13AM 34.6711 -79.0289 26° Northeast 401 461 41,000  Level Washington Center
10:14AM 34.7750 -78.9700 25° Northeast 396 456 41,000  Level Washington Center
10:15AM 34.8789 -78.9111 25° Northeast 401 461 41,000  Level Washington Center
10:16AM 34.9831 -78.8494 26° Northeast 401 461 41,000  Level Washington Center
10:17AM 35.0847 -78.7900 26° Northeast 401 461 41,000  Level Washington Center
10:18AM 35.1864 -78.7281 26° Northeast 401 461 41,000  Level Washington Center
10:19AM 35.2881 -78.6711 25° Northeast 401 461 41,000  Level Washington Center
10:20AM 35.3964 -78.6039 27° Northeast 419 482 41,000  Level Washington Center
10:21AM 35.4936 -78.5461 26° Northeast 424 488 41,000  Level Washington Center
10:22AM 35.6058 -78.4789 26° Northeast 418 481 41,000  Level Washington Center
10:23AM 35.7033 -78.4236 25° Northeast 418 481 41,000  Level Washington Center
10:24AM 35.8069 -78.3606 26° Northeast 413 475 41,000  Level Washington Center
10:25AM 35.9106 -78.3003 25° Northeast 408 470 41,000  Level Washington Center
10:26AM 36.0142 -78.2369 26° Northeast 408 470 41,000  Level Washington Center
10:27AM 36.1219 -78.1736 25° Northeast 413 475 41,000  Level Washington Center
10:28AM 36.2297 -78.1103 25° Northeast 413 475 41,000  Level Washington Center
10:29AM 36.3333 -78.0467 26° Northeast 413 475 41,000  Level Washington Center
10:30AM 36.4433 -77.9750 28° Northeast 413 475 41,000  Level Washington Center
10:31AM 36.5489 -77.9111 26° Northeast 413 475 41,000  Level Washington Center
10:32AM 36.6544 -77.8494 25° Northeast 413 475 41,000  Level Washington Center
10:33AM 36.7492 -77.7900 27° Northeast 413 475 41,000  Level Washington Center
10:34AM 36.8528 -77.7231 27° Northeast 413 475 41,000  Level Washington Center
10:35AM 36.9581 -77.6583 26° Northeast 413 475 41,000  Level Washington Center
10:36AM 37.0614 -77.5933 27° Northeast 413 475 41,000  Level Washington Center
10:37AM 37.1669 -77.5308 25° Northeast 413 475 41,000  Level Washington Center
10:38AM 37.2744 -77.4633 27° Northeast 413 475 41,000  Level Washington Center
10:39AM 37.3797 -77.3978 26° Northeast 413 475 41,000  Level Washington Center
10:40AM 37.4828 -77.3322 27° Northeast 413 475 41,000  Level Washington Center
10:41AM 37.5800 -77.2400 37° Northeast 424 488 41,000  Level Washington Center
10:42AM 37.6856 -77.1375 38° Northeast 424 488 41,000  Level Washington Center
10:43AM 37.7786 -77.0419 39° Northeast 434 499 41,000  Level Washington Center
10:44AM 37.8717 -76.9439 40° Northeast 429 494 41,000  Level Washington Center
10:45AM 37.9581 -76.8558 39° Northeast 436 502 41,000  Level Washington Center
10:46AM 38.0425 -76.7467 45° Northeast 430 495 41,000  Level Washington Center
10:47AM 38.1250 -76.6292 48° Northeast 430 495 41,000  Level Washington Center
10:48AM 38.2031 -76.5139 49° Northeast 430 495 41,000  Level Washington Center
10:49AM 38.2872 -76.3958 48° Northeast 441 507 41,000  Level Washington Center
10:50AM 38.3900 -76.3017 36° Northeast 419 482 41,000  Level Washington Center
10:51AM 38.4886 -76.2097 36° Northeast 426 490 41,000  Level Washington Center
10:52AM 38.5786 -76.1256 36° Northeast 437 503 41,000  Level Washington Center
10:53AM 38.6789 -76.0411 33° Northeast 437 503 41,000  Level Washington Center
10:54AM 38.7753 -75.9486 37° Northeast 432 497 41,000  Level Washington Center
10:55AM 38.8714 -75.8608 35° Northeast 432 497 41,000  Level Washington Center
10:56AM 38.9675 -75.7706 36° Northeast 432 497 41,000  Level Washington Center
10:57AM 39.0633 -75.6772 37° Northeast 432 497 41,000  Level Washington Center
10:58AM 39.1592 -75.5836 37° Northeast 432 497 41,000  Level Washington Center
10:59AM 39.2592 -75.4950 34° Northeast 432 497 41,000  Level Washington Center
11:00AM 39.3550 -75.4064 36° Northeast 432 497 41,000  Level Washington Center
11:01AM 39.4506 -75.3175 36° Northeast 427 491 41,000  Level Washington Center
11:02AM 39.5464 -75.2308 35° Northeast 427 491 41,000  Level Washington Center
11:03AM 39.6944 -75.0931 36° Northeast 426 490 41,000  Level New York Center
11:05AM 39.7914 -75.0097 33° Northeast 426 490 41,000  Level New York Center
11:05AM 39.8881 -74.9264 33° Northeast 421 484 41,000  Level New York Center
11:06AM 39.9819 -74.8100 44° Northeast 416 479 41,000  Level New York Center
11:07AM 40.0442 -74.6969 54° Northeast 426 490 41,000  Level New York Center
11:09AM 40.1175 -74.5572 56° Northeast 426 490 41,000  Level New York Center
11:09AM 40.1817 -74.4414 54° Northeast 431 496 41,000  Level New York Center
11:10AM 40.2481 -74.3142 56° Northeast 431 496 41,000 -1,140 Level New York Center
11:13AM 40.3967 -74.0450 54° Northeast 458 527 37,700 -1,920 Descending Boston Center
11:14AM 40.4628 -73.9267 54° Northeast 458 527 35,300 -2,640 Descending Boston Center
11:15AM 40.5503 -73.7647 55° Northeast 463 533 32,500 -2,640 Descending Boston Center
11:16AM 40.6122 -73.6375 57° Northeast 452 520 30,100 -2,580 Descending Boston Center
11:17AM 40.6803 -73.5047 56° Northeast 447 514 27,400 -2,760 Descending Boston Center
11:18AM 40.7503 -73.3717 55° Northeast 442 509 24,600 -2,220 Descending Boston Center
11:19AM 40.8322 -73.2575 46° Northeast 437 503 23,000 -840 Descending Boston Center
11:20AM 40.9228 -73.1489 42° Northeast 424 488 23,000  Level Boston Center
11:21AM 41.0256 -73.0372 39° Northeast 435 501 23,000 -240 Level Boston Center
11:22AM 41.1136 -72.9278 43° Northeast 435 501 22,600 -1,260 Descending Boston Center
11:23AM 41.2036 -72.8181 43° Northeast 435 501 20,500 -2,160 Descending Boston Center
11:24AM 41.2975 -72.7136 40° Northeast 435 501 18,300 -2,040 Descending Boston Center
11:25AM 41.4061 -72.6533 23° Northeast 415 478 16,500 -1,680 Descending Boston Center
11:26AM 41.5125 -72.6036 19° North 408 470 15,000 -720 Descending Boston Center
11:27AM 41.6147 -72.5594 18° North 392 451 15,100 -780 Climbing Boston Center
11:28AM 41.7022 -72.4789 34° Northeast 381 438 13,500 -1,620 Descending Boston Center
11:28AM 41.7314 -72.4456 40° Northeast 398 458 12,900 -1,500 Descending Boston Center
11:29AM 41.7794 -72.3928 39° Northeast 390 449 12,000 -1,080 Descending Boston Center
11:30AM 41.8875 -72.2756 39° Northeast 401 461 11,000 -540 Descending Boston Center
11:31AM 41.9481 -72.2083 40° Northeast 395 455 11,000 -960 Level Boston Center
11:32AM 42.0331 -72.1103 41° Northeast 373 429 9,300 -1,440 Descending Boston Center
11:33AM 42.0933 -72.0428 40° Northeast 324 373 8,200 -900 Descending Boston Center
11:34AM 42.1700 -71.9583 39° Northeast 277 319 7,400 -780 Descending Boston Center
11:35AM 42.2200 -71.8992 41° Northeast 273 314 6,700 -1,020 Descending Boston Center
11:36AM 42.2717 -71.8425 39° Northeast 279 321 5,600 -900 Descending Boston Center
11:37AM 42.3297 -71.7772 40° Northeast 263 303 5,000 -300 Descending Boston Center
11:38AM 42.3711 -71.7208 45° Northeast 226 260 5,100 -240 Climbing Boston Center
11:39AM 42.3956 -71.6531 64° Northeast 198 228 4,600 -540 Descending Boston Center
11:40AM 42.4264 -71.5850 58° Northeast 198 228 4,100 -600 Descending Boston Center
11:41AM 42.4531 -71.5200 61° Northeast 199 229 3,400 -600 Descending Boston Center
11:42AM 42.4711 -71.4492 71° East 189 217 3,000 -780 Descending Boston Center
11:43AM 42.4850 -71.3817 74° East 187 215 1,900 -720 Descending Boston Center
11:43AM 42.5000 -71.3167 73° East 169 194 1,600 -300 Descending KA90
11:44AM 42.4833 -71.2500 109° East 159 183 1,400 -300 Descending KA90
11:45AM 42.4833 -71.2000 90° East 131 151 1,100 -240 Descending KA90
11:46AM 42.4667 -71.2167 216° Southwest 93 107 1,000 -360 Descending KA90
11:47AM 42.4667 -71.2500 270° West 98 113 400 -600 Descending KA90